createdAt,value
2018-05-27T00:00:57.790Z,100494.91
2018-05-27T00:03:25.309Z,100543.66
2018-05-27T00:05:52.823Z,100536.55
2018-05-27T00:08:20.531Z,100560.92
2018-05-27T00:10:48.043Z,100530.45
2018-05-27T00:13:15.579Z,100592.40
2018-05-27T00:15:43.235Z,100607.63
2018-05-27T00:18:10.754Z,100602.55
2018-05-27T00:20:38.274Z,100630.98
2018-05-27T00:23:05.826Z,100665.52
2018-05-27T00:25:33.341Z,100690.91
2018-05-27T00:28:01.037Z,100677.70
2018-05-27T00:30:28.552Z,100748.78
2018-05-27T00:32:56.079Z,100787.38
2018-05-27T00:35:23.625Z,100814.80
2018-05-27T00:37:51.477Z,100867.59
2018-05-27T00:40:18.999Z,100938.69
2018-05-27T00:42:46.525Z,100937.67
2018-05-27T00:45:14.065Z,100944.78
2018-05-27T00:47:41.609Z,101008.77
2018-05-27T00:50:09.482Z,101026.03
2018-05-27T00:52:37.008Z,101004.70
2018-05-27T00:55:04.517Z,101061.58
2018-05-27T00:57:32.198Z,101086.97
2018-05-27T00:59:59.708Z,101071.73
2018-05-27T01:02:27.225Z,101152.98
2018-05-27T01:04:54.761Z,101180.40
2018-05-27T01:07:22.300Z,101161.11
2018-05-27T01:09:49.827Z,101203.77
2018-05-27T01:12:17.361Z,101231.19
2018-05-27T01:14:44.910Z,101231.19
2018-05-27T01:17:12.429Z,101272.83
2018-05-27T01:19:39.966Z,101254.55
2018-05-27T01:22:07.501Z,101282.98
2018-05-27T01:24:35.205Z,101311.42
2018-05-27T01:27:02.731Z,101329.70
2018-05-27T01:29:30.245Z,101318.53
2018-05-27T01:31:57.811Z,101379.47
2018-05-27T01:34:25.361Z,101385.56
2018-05-27T01:36:52.873Z,101375.41
2018-05-27T01:39:20.417Z,101370.33
2018-05-27T01:41:47.926Z,101390.64
2018-05-27T01:44:15.792Z,101391.66
2018-05-27T01:46:43.315Z,101450.58
2018-05-27T01:49:10.841Z,101390.64
2018-05-27T01:51:38.401Z,101445.49
2018-05-27T01:54:05.920Z,101482.06
2018-05-27T01:56:33.437Z,101482.06
2018-05-27T01:59:01.081Z,101454.63
2018-05-27T02:01:28.604Z,101488.16
2018-05-27T02:03:56.130Z,101567.38
2018-05-27T02:06:23.694Z,101615.12
2018-05-27T02:08:51.209Z,101567.38
2018-05-27T02:11:18.766Z,101612.08
2018-05-27T02:13:46.458Z,101604.97
2018-05-27T02:16:14.071Z,101582.62
2018-05-27T02:18:41.595Z,101621.22
2018-05-27T02:21:09.138Z,101662.86
2018-05-27T02:23:36.656Z,101680.13
2018-05-27T02:26:04.193Z,101689.27
2018-05-27T02:28:31.714Z,101695.37
2018-05-27T02:30:59.338Z,101715.68
2018-05-27T02:33:26.872Z,101731.94
2018-05-27T02:35:54.448Z,101740.06
2018-05-27T02:38:21.978Z,101770.53
2018-05-27T02:40:49.552Z,101770.53
2018-05-27T02:43:17.080Z,101810.16
2018-05-27T02:45:44.596Z,101813.20
2018-05-27T02:48:12.165Z,101818.28
2018-05-27T02:50:39.727Z,101853.83
2018-05-27T02:53:07.225Z,101883.30
2018-05-27T02:55:34.900Z,101886.34
2018-05-27T02:58:02.423Z,101873.14
2018-05-27T03:00:30.849Z,101905.64
2018-05-27T03:02:58.493Z,101876.19
2018-05-27T03:05:26.028Z,101894.47
2018-05-27T03:07:53.555Z,101880.25
2018-05-27T03:10:21.382Z,101899.55
2018-05-27T03:12:48.907Z,101892.44
2018-05-27T03:15:16.432Z,101938.15
2018-05-27T03:17:44.086Z,101949.33
2018-05-27T03:20:11.606Z,101939.16
2018-05-27T03:22:39.126Z,101978.78
2018-05-27T03:25:06.674Z,101939.16
2018-05-27T03:27:34.223Z,101945.27
2018-05-27T03:30:01.770Z,101977.77
2018-05-27T03:32:29.290Z,101925.95
2018-05-27T03:34:56.901Z,101956.44
2018-05-27T03:37:24.428Z,101968.63
2018-05-27T03:39:51.965Z,101995.03
2018-05-27T03:42:19.549Z,102016.37
2018-05-27T03:44:47.066Z,101982.84
2018-05-27T03:47:14.586Z,102005.20
2018-05-27T03:49:42.149Z,102029.58
2018-05-27T03:52:09.673Z,102072.25
2018-05-27T03:54:37.195Z,102042.78
2018-05-27T03:57:04.949Z,102055.99
2018-05-27T03:59:32.471Z,102052.94
2018-05-27T04:01:59.996Z,102031.61
2018-05-27T04:04:53.406Z,102026.53
2018-05-27T04:07:32.717Z,102000.12
2018-05-27T04:10:00.610Z,102028.56
2018-05-27T04:12:28.133Z,101998.08
2018-05-27T04:14:55.653Z,101978.78
2018-05-27T04:17:23.240Z,101940.18
2018-05-27T04:19:50.759Z,101935.10
2018-05-27T04:22:18.287Z,101934.09
2018-05-27T04:24:45.825Z,101925.95
2018-05-27T04:27:13.341Z,101858.91
2018-05-27T04:29:40.921Z,101870.09
2018-05-27T04:32:08.439Z,101875.17
2018-05-27T04:34:35.957Z,101958.47
2018-05-27T04:37:03.504Z,101853.83
2018-05-27T04:39:31.022Z,101856.87
2018-05-27T04:41:58.773Z,101871.10
2018-05-27T04:44:26.302Z,101874.16
2018-05-27T04:46:53.829Z,101891.42
2018-05-27T04:49:21.396Z,101855.86
2018-05-27T04:51:48.951Z,101857.89
2018-05-27T04:54:16.478Z,101809.14
2018-05-27T04:56:44.197Z,101663.87
2018-05-27T04:59:11.712Z,101484.09
2018-05-27T05:01:39.235Z,101406.90
2018-05-27T05:04:07.216Z,101136.73
2018-05-27T05:06:34.749Z,101103.22
2018-05-27T05:09:02.273Z,101041.27
2018-05-27T05:11:29.833Z,100884.86
2018-05-27T05:13:57.352Z,100861.51
2018-05-27T05:16:24.917Z,100755.89
2018-05-27T05:18:52.442Z,100720.34
2018-05-27T05:21:19.970Z,100532.48
2018-05-27T05:23:47.513Z,100496.95
2018-05-27T05:26:15.058Z,100351.74
2018-05-27T05:28:42.591Z,100487.80
2018-05-27T05:31:10.132Z,100457.34
2018-05-27T05:33:37.675Z,100409.63
2018-05-27T05:36:05.237Z,100378.14
2018-05-27T05:38:32.758Z,100514.20
2018-05-27T05:41:00.274Z,100554.83
2018-05-27T05:43:27.809Z,100519.28
2018-05-27T05:45:55.330Z,100342.60
2018-05-27T05:48:22.890Z,100073.53
2018-05-27T05:50:50.405Z,100121.25
2018-05-27T05:53:17.955Z,99996.38
2018-05-27T05:55:45.494Z,100449.22
2018-05-27T05:58:13.226Z,100344.63
2018-05-27T06:00:40.741Z,100078.61
2018-05-27T06:03:08.257Z,100194.36
2018-05-27T06:05:35.799Z,99887.73
2018-05-27T06:08:03.526Z,99609.56
2018-05-27T06:10:31.046Z,99818.70
2018-05-27T06:12:58.572Z,100188.27
2018-05-27T06:15:26.120Z,99732.41
2018-05-27T06:17:53.648Z,99321.27
2018-05-27T06:20:21.281Z,99522.27
2018-05-27T06:22:48.802Z,99445.11
2018-05-27T06:25:16.370Z,99445.11
2018-05-27T06:27:43.889Z,99449.17
2018-05-27T06:30:11.402Z,99333.45
2018-05-27T06:32:38.993Z,99258.33
2018-05-27T06:35:06.522Z,99201.48
2018-05-27T06:37:34.076Z,99416.69
2018-05-27T06:40:01.955Z,99601.45
2018-05-27T06:42:29.485Z,99495.88
2018-05-27T06:44:57.089Z,99352.73
2018-05-27T06:47:24.737Z,99331.42
2018-05-27T06:49:52.250Z,99373.04
2018-05-27T06:52:19.921Z,99425.83
2018-05-27T06:54:47.481Z,99220.77
2018-05-27T06:57:15.002Z,99393.34
2018-05-27T06:59:42.535Z,99334.47
2018-05-27T07:02:10.091Z,98872.63
2018-05-27T07:04:37.623Z,98816.80
2018-05-27T07:07:05.283Z,99371.01
2018-05-27T07:09:32.801Z,99651.19
2018-05-27T07:12:00.350Z,99817.69
2018-05-27T07:14:27.893Z,99973.02
2018-05-27T07:16:55.422Z,99920.23
2018-05-27T07:19:22.990Z,99970.99
2018-05-27T07:21:50.514Z,99883.67
2018-05-27T07:24:18.031Z,99955.77
2018-05-27T07:26:45.576Z,100009.57
2018-05-27T07:29:13.101Z,99920.23
2018-05-27T07:31:40.641Z,99974.03
2018-05-27T07:34:08.171Z,99884.69
2018-05-27T07:36:35.862Z,99736.47
2018-05-27T07:39:03.382Z,99661.34
2018-05-27T07:41:30.908Z,99604.49
2018-05-27T07:43:58.465Z,99600.43
2018-05-27T07:46:25.981Z,99585.20
2018-05-27T07:48:53.524Z,99525.31
2018-05-27T07:51:21.085Z,99538.51
2018-05-27T07:53:48.611Z,99538.51
2018-05-27T07:56:16.143Z,99347.66
2018-05-27T07:58:43.695Z,99408.57
2018-05-27T08:01:11.695Z,99410.59
2018-05-27T08:03:39.209Z,99393.34
2018-05-27T08:06:06.722Z,99231.94
2018-05-27T08:08:34.623Z,99351.72
2018-05-27T08:11:02.146Z,99243.11
2018-05-27T08:13:29.726Z,99162.92
2018-05-27T08:15:57.258Z,99289.80
2018-05-27T08:18:24.774Z,99285.74
2018-05-27T08:20:52.322Z,99149.72
2018-05-27T08:23:19.848Z,99116.23
2018-05-27T08:25:47.426Z,98968.03
2018-05-27T08:28:14.943Z,99023.86
2018-05-27T08:30:42.462Z,99023.86
2018-05-27T08:33:10.001Z,98886.84
2018-05-27T08:35:37.535Z,98843.20
2018-05-27T08:38:05.051Z,98837.10
2018-05-27T08:40:33.022Z,98826.95
2018-05-27T08:43:00.536Z,98794.48
2018-05-27T08:45:28.048Z,98782.30
2018-05-27T08:47:55.590Z,98697.05
2018-05-27T08:50:23.258Z,98698.06
2018-05-27T08:52:50.778Z,98675.73
2018-05-27T08:55:18.291Z,98648.33
2018-05-27T08:57:45.829Z,98584.39
2018-05-27T09:00:13.357Z,98530.61
2018-05-27T09:02:40.924Z,98380.41
2018-05-27T09:05:08.442Z,98317.48
2018-05-27T09:07:35.955Z,98391.57
2018-05-27T09:10:03.637Z,98345.90
2018-05-27T09:12:31.155Z,98317.48
2018-05-27T09:14:58.674Z,98288.06
2018-05-27T09:17:26.203Z,98102.36
2018-05-27T09:19:53.713Z,98164.26
2018-05-27T09:22:21.241Z,98242.39
2018-05-27T09:24:48.990Z,97946.09
2018-05-27T09:27:16.523Z,98050.60
2018-05-27T09:29:44.047Z,98229.20
2018-05-27T09:32:11.804Z,98152.08
2018-05-27T09:34:39.322Z,98076.98
2018-05-27T09:37:06.833Z,98035.38
2018-05-27T09:39:34.363Z,97581.84
2018-05-27T09:42:01.875Z,97599.08
2018-05-27T09:44:29.448Z,97620.39
2018-05-27T09:46:56.964Z,97613.28
2018-05-27T09:49:24.511Z,97931.88
2018-05-27T09:51:52.090Z,97849.70
2018-05-27T09:54:19.601Z,97965.37
2018-05-27T09:56:47.115Z,97733.02
2018-05-27T09:59:14.684Z,97904.48
2018-05-27T10:01:42.224Z,97732.00
2018-05-27T10:04:09.748Z,97506.76
2018-05-27T10:06:37.287Z,97368.78
2018-05-27T10:09:04.810Z,97595.02
2018-05-27T10:11:32.346Z,97521.98
2018-05-27T10:14:00.216Z,97271.39
2018-05-27T10:16:27.725Z,97149.66
2018-05-27T10:18:55.302Z,97236.89
2018-05-27T10:21:23.121Z,97241.97
2018-05-27T10:23:50.639Z,97144.58
2018-05-27T10:26:18.152Z,97316.02
2018-05-27T10:28:45.685Z,97246.02
2018-05-27T10:31:14.878Z,97123.27
2018-05-27T10:33:42.389Z,97091.83
2018-05-27T10:36:09.893Z,97414.43
2018-05-27T10:38:37.455Z,97169.94
2018-05-27T10:41:04.971Z,97041.11
2018-05-27T10:43:32.488Z,96972.12
2018-05-27T10:46:00.126Z,96785.48
2018-05-27T10:48:27.642Z,96671.88
2018-05-27T10:50:55.154Z,96663.76
2018-05-27T10:53:22.725Z,96522.77
2018-05-27T10:55:50.234Z,96544.07
2018-05-27T10:58:17.749Z,96677.95
2018-05-27T11:00:45.304Z,96693.17
2018-05-27T11:03:12.821Z,96703.31
2018-05-27T11:05:40.347Z,96905.17
2018-05-27T11:08:07.922Z,96934.59
2018-05-27T11:10:35.426Z,96785.48
2018-05-27T11:13:02.945Z,96757.08
2018-05-27T11:15:30.474Z,96536.97
2018-05-27T11:17:57.985Z,96560.30
2018-05-27T11:20:25.522Z,96424.39
2018-05-27T11:22:53.218Z,96241.83
2018-05-27T11:25:20.750Z,96322.97
2018-05-27T11:27:48.261Z,96372.66
2018-05-27T11:30:15.807Z,96343.25
2018-05-27T11:32:43.342Z,96418.30
2018-05-27T11:35:10.849Z,96853.44
2018-05-27T11:37:38.398Z,96526.83
2018-05-27T11:40:05.933Z,96545.09
2018-05-27T11:42:33.499Z,96552.19
2018-05-27T11:45:01.017Z,96378.75
2018-05-27T11:47:28.534Z,96455.83
2018-05-27T11:49:56.074Z,96273.27
2018-05-27T11:52:23.582Z,96052.18
2018-05-27T11:54:51.133Z,95809.80
2018-05-27T11:57:18.643Z,95855.44
2018-05-27T11:59:46.162Z,95925.41
2018-05-27T12:02:13.708Z,95583.67
2018-05-27T12:04:41.216Z,95029.06
2018-05-27T12:07:08.930Z,95478.22
2018-05-27T12:09:36.608Z,95600.92
2018-05-27T12:12:04.007Z,95139.58
2018-05-27T12:14:31.757Z,95049.34
2018-05-27T12:16:59.266Z,95280.50
2018-05-27T12:19:26.782Z,95141.60
2018-05-27T12:21:54.313Z,95464.03
2018-05-27T12:24:21.841Z,95464.03
2018-05-27T12:26:49.359Z,95247.05
2018-05-27T12:29:16.890Z,95246.03
2018-05-27T12:31:44.405Z,95010.81
2018-05-27T12:34:11.934Z,94898.28
2018-05-27T12:36:39.886Z,94666.13
2018-05-27T12:39:07.390Z,94766.48
2018-05-27T12:41:34.902Z,94841.51
2018-05-27T12:44:02.442Z,94667.14
2018-05-27T12:46:29.973Z,94361.00
2018-05-27T12:48:57.510Z,94182.61
2018-05-27T12:51:25.149Z,94197.81
2018-05-27T12:53:52.654Z,94266.73
2018-05-27T12:56:20.170Z,95089.89
2018-05-27T12:58:47.751Z,95056.44
2018-05-27T13:01:15.271Z,94291.06
2018-05-27T13:03:42.782Z,93937.33
2018-05-27T13:06:10.322Z,94095.45
2018-05-27T13:08:37.965Z,93858.28
2018-05-27T13:11:05.483Z,94530.30
2018-05-27T13:13:33.000Z,94223.16
2018-05-27T13:16:00.571Z,94510.02
2018-05-27T13:18:28.085Z,94201.87
2018-05-27T13:20:55.596Z,93874.49
2018-05-27T13:23:23.132Z,94421.83
2018-05-27T13:25:50.761Z,94140.04
2018-05-27T13:28:18.270Z,94362.02
2018-05-27T13:30:45.789Z,94534.34
2018-05-27T13:33:13.697Z,94521.17
2018-05-27T13:35:41.205Z,94578.95
2018-05-27T13:38:08.718Z,94695.52
2018-05-27T13:40:36.253Z,95001.69
2018-05-27T13:43:03.793Z,94981.41
2018-05-27T13:45:31.320Z,94458.31
2018-05-27T13:47:58.886Z,94060.98
2018-05-27T13:50:26.393Z,94065.03
2018-05-27T13:52:54.035Z,94081.25
2018-05-27T13:55:21.589Z,94464.41
2018-05-27T13:57:49.098Z,94182.61
2018-05-27T14:00:17.070Z,94378.23
2018-05-27T14:02:44.578Z,95168.98
2018-05-27T14:05:12.094Z,95031.09
2018-05-27T14:07:40.040Z,95422.45
2018-05-27T14:10:07.557Z,95431.58
2018-05-27T14:12:35.091Z,95247.05
2018-05-27T14:15:03.062Z,94780.68
2018-05-27T14:17:30.569Z,94767.50
2018-05-27T14:19:58.073Z,94239.37
2018-05-27T14:22:25.648Z,94581.98
2018-05-27T14:24:53.164Z,94641.80
2018-05-27T14:27:20.684Z,94414.73
2018-05-27T14:29:48.217Z,94075.17
2018-05-27T14:32:15.725Z,94493.80
2018-05-27T14:34:43.299Z,94620.52
2018-05-27T14:37:10.805Z,94765.47
2018-05-27T14:39:38.313Z,95020.95
2018-05-27T14:42:05.841Z,94819.20
2018-05-27T14:44:33.345Z,94690.45
2018-05-27T14:47:00.889Z,94257.62
2018-05-27T14:49:28.402Z,94201.87
2018-05-27T14:51:55.990Z,94548.53
2018-05-27T14:54:23.502Z,94133.95
2018-05-27T14:56:51.094Z,95314.98
2018-05-27T14:59:18.990Z,95883.84
2018-05-27T15:01:46.510Z,95638.44
2018-05-27T15:04:14.022Z,96399.03
2018-05-27T15:06:41.568Z,96554.21
2018-05-27T15:09:09.080Z,96755.05
2018-05-27T15:11:36.718Z,97156.75
2018-05-27T15:14:04.244Z,97733.02
2018-05-27T15:16:31.775Z,98428.10
2018-05-27T15:18:59.305Z,98715.31
2018-05-27T15:21:27.237Z,98769.10
2018-05-27T15:23:54.759Z,99413.64
2018-05-27T15:26:22.275Z,99545.61
2018-05-27T15:28:49.806Z,99394.36
2018-05-27T15:31:17.345Z,99894.84
2018-05-27T15:33:44.890Z,100143.59
2018-05-27T15:36:12.409Z,99803.47
2018-05-27T15:38:39.937Z,99814.64
2018-05-27T15:41:07.458Z,99879.61
2018-05-27T15:43:35.126Z,100074.55
2018-05-27T15:46:02.652Z,100000.44
2018-05-27T15:48:30.181Z,99909.06
2018-05-27T15:50:57.717Z,99845.09
2018-05-27T15:53:25.235Z,99663.38
2018-05-27T15:55:52.778Z,99710.07
2018-05-27T15:58:20.293Z,99729.36
2018-05-27T16:00:48.254Z,99424.81
2018-05-27T16:03:15.770Z,99319.23
2018-05-27T16:05:43.298Z,99494.86
2018-05-27T16:08:10.887Z,99521.25
2018-05-27T16:10:38.406Z,99625.81
2018-05-27T16:13:05.921Z,99601.45
2018-05-27T16:15:33.517Z,99825.80
2018-05-27T16:18:01.050Z,99736.47
2018-05-27T16:20:28.582Z,99786.22
2018-05-27T16:22:56.165Z,99626.83
2018-05-27T16:25:23.707Z,99612.61
2018-05-27T16:27:51.400Z,99559.83
2018-05-27T16:30:18.923Z,99633.94
2018-05-27T16:32:46.454Z,99489.78
2018-05-27T16:35:14.122Z,99563.89
2018-05-27T16:37:41.646Z,99599.41
2018-05-27T16:40:09.180Z,99159.88
2018-05-27T16:42:36.840Z,99193.37
2018-05-27T16:45:04.413Z,99135.52
2018-05-27T16:47:31.938Z,99024.87
2018-05-27T16:49:59.461Z,98987.32
2018-05-27T16:52:27.001Z,99015.73
2018-05-27T16:54:54.515Z,98880.75
2018-05-27T16:57:22.153Z,98786.36
2018-05-27T16:59:49.673Z,98767.07
2018-05-27T17:02:17.204Z,98787.38
2018-05-27T17:04:44.906Z,98978.19
2018-05-27T17:07:12.434Z,99045.17
2018-05-27T17:09:39.956Z,99026.91
2018-05-27T17:12:07.541Z,99105.06
2018-05-27T17:14:35.063Z,99210.63
2018-05-27T17:17:02.577Z,99221.80
2018-05-27T17:19:30.118Z,99085.78
2018-05-27T17:21:57.671Z,99111.16
2018-05-27T17:24:25.195Z,99030.97
2018-05-27T17:26:52.737Z,98927.44
2018-05-27T17:29:20.272Z,98975.14
2018-05-27T17:31:48.232Z,99059.39
2018-05-27T17:34:15.755Z,98948.75
2018-05-27T17:36:43.273Z,99020.81
2018-05-27T17:39:10.813Z,98419.98
2018-05-27T17:41:38.357Z,98442.31
2018-05-27T17:44:05.906Z,98332.70
2018-05-27T17:46:33.458Z,98459.56
2018-05-27T17:49:01.103Z,98575.26
2018-05-27T17:51:28.855Z,98813.77
2018-05-27T17:53:56.390Z,98577.28
2018-05-27T17:56:23.946Z,98600.63
2018-05-27T17:58:51.476Z,98683.84
2018-05-27T18:01:19.512Z,98872.63
2018-05-27T18:03:47.037Z,99095.92
2018-05-27T18:06:14.559Z,99110.14
2018-05-27T18:08:42.591Z,99002.55
2018-05-27T18:11:10.414Z,98854.36
2018-05-27T18:13:37.998Z,98857.41
2018-05-27T18:16:05.673Z,99163.94
2018-05-27T18:18:33.311Z,99301.98
2018-05-27T18:21:00.930Z,99429.89
2018-05-27T18:23:28.664Z,99574.04
2018-05-27T18:25:56.331Z,99655.25
2018-05-27T18:28:23.917Z,99567.95
2018-05-27T18:30:51.454Z,99656.27
2018-05-27T18:33:19.001Z,99657.28
2018-05-27T18:35:46.531Z,99657.28
2018-05-27T18:38:14.457Z,99679.62
2018-05-27T18:40:41.965Z,99839.00
2018-05-27T18:43:09.486Z,99966.92
2018-05-27T18:45:37.515Z,99979.11
2018-05-27T18:48:05.055Z,99916.16
2018-05-27T18:50:32.589Z,100174.05
2018-05-27T18:53:00.129Z,100027.84
2018-05-27T18:55:27.678Z,100204.52
2018-05-27T18:57:55.198Z,100123.28
2018-05-27T19:00:22.905Z,100074.55
2018-05-27T19:02:50.453Z,99939.52
2018-05-27T19:05:17.986Z,100001.45
2018-05-27T19:07:45.531Z,99953.73
2018-05-27T19:10:13.059Z,100085.72
2018-05-27T19:12:40.606Z,99964.90
2018-05-27T19:15:08.121Z,99998.41
2018-05-27T19:17:35.818Z,100271.53
2018-05-27T19:20:03.342Z,100172.02
2018-05-27T19:22:30.861Z,100212.64
2018-05-27T19:24:58.405Z,100283.71
2018-05-27T19:27:25.933Z,100125.31
2018-05-27T19:29:53.500Z,100247.16
2018-05-27T19:32:21.034Z,100199.44
2018-05-27T19:34:48.557Z,100263.41
2018-05-27T19:37:16.102Z,100371.03
2018-05-27T19:39:43.623Z,100397.44
2018-05-27T19:42:11.216Z,100390.33
2018-05-27T19:44:38.721Z,100468.52
2018-05-27T19:47:06.404Z,100461.41
2018-05-27T19:49:33.960Z,100467.50
2018-05-27T19:52:01.476Z,100480.70
2018-05-27T19:54:29.055Z,100501.01
2018-05-27T19:56:56.573Z,100550.77
2018-05-27T19:59:24.089Z,100640.13
2018-05-27T20:01:51.671Z,100667.55
2018-05-27T20:04:19.211Z,100624.89
2018-05-27T20:06:46.746Z,100617.78
2018-05-27T20:09:14.290Z,100612.70
2018-05-27T20:11:41.825Z,100577.17
2018-05-27T20:14:09.371Z,100602.55
2018-05-27T20:16:37.077Z,100654.34
2018-05-27T20:19:04.599Z,100716.29
2018-05-27T20:21:32.117Z,100683.79
2018-05-27T20:23:59.692Z,100691.91
2018-05-27T20:26:27.214Z,100726.44
2018-05-27T20:28:54.726Z,100772.14
2018-05-27T20:31:22.415Z,100734.56
2018-05-27T20:33:49.938Z,100771.12
2018-05-27T20:36:17.462Z,100799.56
2018-05-27T20:38:45.002Z,100783.31
2018-05-27T20:41:12.542Z,100807.69
2018-05-27T20:43:40.059Z,100835.10
2018-05-27T20:46:07.643Z,100876.73
2018-05-27T20:48:35.166Z,100808.70
2018-05-27T20:51:02.673Z,100887.91
2018-05-27T20:53:30.357Z,100859.48
2018-05-27T20:55:57.881Z,100886.89
2018-05-27T20:58:25.404Z,100881.81
2018-05-27T21:00:52.946Z,100917.36
2018-05-27T21:03:20.543Z,100919.39
2018-05-27T21:05:48.096Z,100974.23
2018-05-27T21:08:15.617Z,100997.59
2018-05-27T21:10:43.187Z,100987.44
2018-05-27T21:13:10.702Z,100963.06
2018-05-27T21:15:38.225Z,101014.86
2018-05-27T21:18:05.814Z,101090.02
2018-05-27T21:20:33.332Z,101021.97
2018-05-27T21:23:00.846Z,101078.84
2018-05-27T21:25:28.409Z,101070.72
2018-05-27T21:27:56.092Z,101071.73
2018-05-27T21:30:23.606Z,101165.16
2018-05-27T21:32:51.143Z,101173.30
2018-05-27T21:35:18.706Z,101129.63
2018-05-27T21:37:46.286Z,101156.03
2018-05-27T21:40:13.816Z,101157.05
2018-05-27T21:42:41.337Z,101154.00
2018-05-27T21:45:08.882Z,101257.59
2018-05-27T21:47:36.431Z,101318.53
2018-05-27T21:50:03.957Z,101336.81
2018-05-27T21:52:31.914Z,101350.02
2018-05-27T21:54:59.434Z,101210.88
2018-05-27T21:57:26.954Z,101231.19
2018-05-27T21:59:54.502Z,101241.34
2018-05-27T22:02:22.030Z,101264.70
2018-05-27T22:04:49.690Z,101179.38
2018-05-27T22:07:17.214Z,101291.11
2018-05-27T22:09:44.760Z,101376.42
2018-05-27T22:12:12.286Z,101223.05
2018-05-27T22:14:40.214Z,101230.17
2018-05-27T22:17:07.759Z,101349.00
2018-05-27T22:19:35.297Z,101450.58
2018-05-27T22:22:02.836Z,101537.92
2018-05-27T22:24:30.350Z,101573.47
2018-05-27T22:26:57.942Z,101627.31
2018-05-27T22:29:25.457Z,101631.38
2018-05-27T22:31:52.986Z,101683.17
2018-05-27T22:34:20.531Z,101702.48
2018-05-27T22:36:48.048Z,101725.84
2018-05-27T22:39:15.609Z,101756.31
2018-05-27T22:41:43.133Z,101745.14
2018-05-27T22:44:10.661Z,101780.70
2018-05-27T22:46:38.225Z,101724.83
2018-05-27T22:49:05.778Z,101723.81
2018-05-27T22:51:33.487Z,101684.19
2018-05-27T22:54:01.021Z,101741.08
2018-05-27T22:56:28.545Z,101784.76
2018-05-27T22:58:56.085Z,101793.90
2018-05-27T23:01:23.658Z,101813.20
2018-05-27T23:03:51.177Z,101849.77
2018-05-27T23:06:18.702Z,101863.99
2018-05-27T23:08:46.251Z,101865.01
2018-05-27T23:11:13.790Z,101775.62
2018-05-27T23:13:41.317Z,101756.31
2018-05-27T23:16:09.006Z,101769.52
2018-05-27T23:18:36.531Z,101798.98
2018-05-27T23:21:04.053Z,101876.19
2018-05-27T23:23:31.622Z,101916.81
2018-05-27T23:25:59.191Z,101926.97
2018-05-27T23:28:26.718Z,101934.09
2018-05-27T23:30:54.269Z,101994.02
2018-05-27T23:33:21.830Z,102049.89
2018-05-27T23:35:49.379Z,102077.33
2018-05-27T23:38:16.922Z,102089.52
2018-05-27T23:40:44.441Z,102090.53
2018-05-27T23:43:11.989Z,102032.63
2018-05-27T23:45:40.486Z,102035.67
2018-05-27T23:48:08.005Z,101970.66
2018-05-27T23:50:35.530Z,102044.81
2018-05-27T23:53:03.078Z,102063.10
2018-05-27T23:55:30.630Z,102069.20
2018-05-27T23:57:58.169Z,102022.47
